sensor_id;sensor_type;location;lat;lon;timestamp;P1;durP1;ratioP1;P2;durP2;ratioP2
23181;SDS011;11759;51.282;6.642;2022-08-02T00:00:07;15.10;;;4.60;;
23181;SDS011;11759;51.282;6.642;2022-08-02T00:02:34;11.70;;;4.70;;
23181;SDS011;11759;51.282;6.642;2022-08-02T00:05:00;9.02;;;4.95;;
23181;SDS011;11759;51.282;6.642;2022-08-02T00:07:27;17.60;;;5.47;;
23181;SDS011;11759;51.282;6.642;2022-08-02T00:09:54;9.73;;;4.85;;
23181;SDS011;11759;51.282;6.642;2022-08-02T00:12:21;11.27;;;5.05;;
23181;SDS011;11759;51.282;6.642;2022-08-02T00:14:48;11.57;;;4.28;;
23181;SDS011;11759;51.282;6.642;2022-08-02T00:17:14;12.80;;;4.90;;
23181;SDS011;11759;51.282;6.642;2022-08-02T00:19:41;8.75;;;4.93;;
23181;SDS011;11759;51.282;6.642;2022-08-02T00:22:07;11.27;;;4.68;;
23181;SDS011;11759;51.282;6.642;2022-08-02T00:24:35;11.32;;;4.88;;
23181;SDS011;11759;51.282;6.642;2022-08-02T00:27:01;16.48;;;5.22;;
23181;SDS011;11759;51.282;6.642;2022-08-02T00:29:34;11.98;;;5.55;;
23181;SDS011;11759;51.282;6.642;2022-08-02T00:32:15;9.57;;;5.10;;
23181;SDS011;11759;51.282;6.642;2022-08-02T00:34:42;11.75;;;5.00;;
23181;SDS011;11759;51.282;6.642;2022-08-02T00:37:08;8.80;;;4.30;;
23181;SDS011;11759;51.282;6.642;2022-08-02T00:39:35;9.13;;;5.25;;
23181;SDS011;11759;51.282;6.642;2022-08-02T00:42:02;14.63;;;5.30;;
23181;SDS011;11759;51.282;6.642;2022-08-02T00:44:29;9.25;;;4.72;;
23181;SDS011;11759;51.282;6.642;2022-08-02T00:46:55;15.50;;;5.18;;
23181;SDS011;11759;51.282;6.642;2022-08-02T00:49:22;10.88;;;4.57;;
23181;SDS011;11759;51.282;6.642;2022-08-02T00:51:49;16.30;;;5.75;;
23181;SDS011;11759;51.282;6.642;2022-08-02T00:54:16;13.82;;;4.88;;
23181;SDS011;11759;51.282;6.642;2022-08-02T00:56:43;12.10;;;5.60;;
23181;SDS011;11759;51.282;6.642;2022-08-02T00:59:16;10.05;;;4.72;;
23181;SDS011;11759;51.282;6.642;2022-08-02T01:01:42;12.07;;;5.25;;
23181;SDS011;11759;51.282;6.642;2022-08-02T01:04:23;17.20;;;5.38;;
23181;SDS011;11759;51.282;6.642;2022-08-02T01:07:00;13.27;;;5.50;;
23181;SDS011;11759;51.282;6.642;2022-08-02T01:09:37;12.02;;;4.95;;
23181;SDS011;11759;51.282;6.642;2022-08-02T01:12:04;9.57;;;4.60;;
23181;SDS011;11759;51.282;6.642;2022-08-02T01:14:31;11.13;;;5.57;;
23181;SDS011;11759;51.282;6.642;2022-08-02T01:20:02;11.32;;;5.53;;
23181;SDS011;11759;51.282;6.642;2022-08-02T01:22:56;7.55;;;4.70;;
23181;SDS011;11759;51.282;6.642;2022-08-02T01:31:29;10.32;;;4.85;;
23181;SDS011;11759;51.282;6.642;2022-08-02T01:36:24;14.52;;;5.65;;
23181;SDS011;11759;51.282;6.642;2022-08-02T01:38:52;13.43;;;5.25;;
23181;SDS011;11759;51.282;6.642;2022-08-02T01:41:20;11.88;;;5.03;;
23181;SDS011;11759;51.282;6.642;2022-08-02T01:43:50;11.00;;;5.00;;
23181;SDS011;11759;51.282;6.642;2022-08-02T01:46:19;15.20;;;5.63;;
23181;SDS011;11759;51.282;6.642;2022-08-02T01:48:46;8.98;;;4.82;;
23181;SDS011;11759;51.282;6.642;2022-08-02T01:51:15;11.32;;;5.63;;
23181;SDS011;11759;51.282;6.642;2022-08-02T01:53:44;10.05;;;5.32;;
23181;SDS011;11759;51.282;6.642;2022-08-02T01:56:13;9.07;;;5.20;;
23181;SDS011;11759;51.282;6.642;2022-08-02T01:58:41;11.07;;;5.47;;
23181;SDS011;11759;51.282;6.642;2022-08-02T02:01:08;10.73;;;4.72;;
23181;SDS011;11759;51.282;6.642;2022-08-02T02:03:43;13.27;;;5.20;;
23181;SDS011;11759;51.282;6.642;2022-08-02T02:06:11;10.25;;;4.85;;
23181;SDS011;11759;51.282;6.642;2022-08-02T02:08:38;10.60;;;6.00;;
23181;SDS011;11759;51.282;6.642;2022-08-02T02:11:06;8.00;;;5.47;;
23181;SDS011;11759;51.282;6.642;2022-08-02T02:14:12;9.98;;;5.50;;
23181;SDS011;11759;51.282;6.642;2022-08-02T02:16:39;13.30;;;6.10;;
23181;SDS011;11759;51.282;6.642;2022-08-02T02:19:07;16.50;;;6.03;;
23181;SDS011;11759;51.282;6.642;2022-08-02T02:21:35;13.70;;;5.88;;
23181;SDS011;11759;51.282;6.642;2022-08-02T02:24:02;11.93;;;5.30;;
23181;SDS011;11759;51.282;6.642;2022-08-02T02:26:36;10.15;;;5.90;;
23181;SDS011;11759;51.282;6.642;2022-08-02T02:29:08;10.57;;;5.30;;
23181;SDS011;11759;51.282;6.642;2022-08-02T02:31:39;9.82;;;5.60;;
23181;SDS011;11759;51.282;6.642;2022-08-02T02:34:10;17.25;;;5.72;;
23181;SDS011;11759;51.282;6.642;2022-08-02T02:36:39;9.90;;;5.97;;
23181;SDS011;11759;51.282;6.642;2022-08-02T02:39:07;10.40;;;5.68;;
23181;SDS011;11759;51.282;6.642;2022-08-02T02:41:39;13.48;;;5.97;;
23181;SDS011;11759;51.282;6.642;2022-08-02T02:44:06;9.88;;;5.70;;
23181;SDS011;11759;51.282;6.642;2022-08-02T02:46:35;12.63;;;6.47;;
23181;SDS011;11759;51.282;6.642;2022-08-02T02:49:02;12.98;;;5.78;;
23181;SDS011;11759;51.282;6.642;2022-08-02T02:51:29;9.85;;;5.75;;
23181;SDS011;11759;51.282;6.642;2022-08-02T02:53:56;13.32;;;6.55;;
23181;SDS011;11759;51.282;6.642;2022-08-02T02:56:43;10.15;;;6.25;;
23181;SDS011;11759;51.282;6.642;2022-08-02T02:59:11;13.40;;;6.22;;
23181;SDS011;11759;51.282;6.642;2022-08-02T03:01:38;15.18;;;6.85;;
23181;SDS011;11759;51.282;6.642;2022-08-02T03:04:22;10.98;;;6.30;;
23181;SDS011;11759;51.282;6.642;2022-08-02T03:06:49;12.27;;;6.30;;
23181;SDS011;11759;51.282;6.642;2022-08-02T03:09:16;12.60;;;6.43;;
23181;SDS011;11759;51.282;6.642;2022-08-02T03:11:42;15.75;;;6.03;;
23181;SDS011;11759;51.282;6.642;2022-08-02T03:14:10;14.00;;;7.35;;
23181;SDS011;11759;51.282;6.642;2022-08-02T03:16:41;8.65;;;6.28;;
23181;SDS011;11759;51.282;6.642;2022-08-02T03:21:35;15.65;;;6.65;;
23181;SDS011;11759;51.282;6.642;2022-08-02T03:24:01;18.35;;;6.35;;
23181;SDS011;11759;51.282;6.642;2022-08-02T03:26:28;14.82;;;6.72;;
23181;SDS011;11759;51.282;6.642;2022-08-02T03:28:55;10.68;;;6.53;;
23181;SDS011;11759;51.282;6.642;2022-08-02T03:31:21;16.23;;;7.15;;
23181;SDS011;11759;51.282;6.642;2022-08-02T03:33:48;10.75;;;6.80;;
23181;SDS011;11759;51.282;6.642;2022-08-02T03:36:16;16.98;;;6.75;;
23181;SDS011;11759;51.282;6.642;2022-08-02T03:38:44;14.93;;;7.32;;
23181;SDS011;11759;51.282;6.642;2022-08-02T03:41:11;12.38;;;7.13;;
23181;SDS011;11759;51.282;6.642;2022-08-02T03:43:39;12.88;;;7.22;;
23181;SDS011;11759;51.282;6.642;2022-08-02T03:46:06;14.35;;;6.97;;
23181;SDS011;11759;51.282;6.642;2022-08-02T03:48:33;10.52;;;6.70;;
23181;SDS011;11759;51.282;6.642;2022-08-02T03:51:00;11.80;;;7.05;;
23181;SDS011;11759;51.282;6.642;2022-08-02T03:53:28;12.90;;;6.93;;
23181;SDS011;11759;51.282;6.642;2022-08-02T03:55:54;19.33;;;7.50;;
23181;SDS011;11759;51.282;6.642;2022-08-02T03:58:21;17.65;;;7.88;;
23181;SDS011;11759;51.282;6.642;2022-08-02T04:00:49;15.27;;;7.57;;
23181;SDS011;11759;51.282;6.642;2022-08-02T04:03:17;13.15;;;8.13;;
23181;SDS011;11759;51.282;6.642;2022-08-02T04:05:45;19.15;;;8.13;;
23181;SDS011;11759;51.282;6.642;2022-08-02T04:08:29;13.60;;;7.93;;
23181;SDS011;11759;51.282;6.642;2022-08-02T04:11:03;15.85;;;7.30;;
23181;SDS011;11759;51.282;6.642;2022-08-02T04:13:48;16.83;;;7.80;;
23181;SDS011;11759;51.282;6.642;2022-08-02T04:16:19;14.48;;;7.88;;
23181;SDS011;11759;51.282;6.642;2022-08-02T04:21:23;15.32;;;7.80;;
23181;SDS011;11759;51.282;6.642;2022-08-02T04:23:51;15.23;;;7.68;;
23181;SDS011;11759;51.282;6.642;2022-08-02T04:26:19;14.90;;;7.80;;
23181;SDS011;11759;51.282;6.642;2022-08-02T04:28:53;18.90;;;8.50;;
23181;SDS011;11759;51.282;6.642;2022-08-02T04:31:20;23.23;;;8.98;;
23181;SDS011;11759;51.282;6.642;2022-08-02T04:33:47;18.20;;;9.07;;
23181;SDS011;11759;51.282;6.642;2022-08-02T04:36:14;17.75;;;9.05;;
23181;SDS011;11759;51.282;6.642;2022-08-02T04:38:57;22.50;;;10.13;;
23181;SDS011;11759;51.282;6.642;2022-08-02T04:41:35;16.08;;;8.48;;
23181;SDS011;11759;51.282;6.642;2022-08-02T04:44:09;15.90;;;9.77;;
23181;SDS011;11759;51.282;6.642;2022-08-02T04:46:36;17.95;;;9.50;;
23181;SDS011;11759;51.282;6.642;2022-08-02T04:49:04;20.15;;;9.98;;
23181;SDS011;11759;51.282;6.642;2022-08-02T04:51:34;20.88;;;10.00;;
23181;SDS011;11759;51.282;6.642;2022-08-02T04:54:04;15.07;;;9.05;;
23181;SDS011;11759;51.282;6.642;2022-08-02T04:56:35;20.45;;;9.98;;
23181;SDS011;11759;51.282;6.642;2022-08-02T04:59:06;15.88;;;8.98;;
23181;SDS011;11759;51.282;6.642;2022-08-02T05:01:33;19.45;;;9.65;;
23181;SDS011;11759;51.282;6.642;2022-08-02T05:04:01;21.73;;;9.75;;
23181;SDS011;11759;51.282;6.642;2022-08-02T05:06:28;19.70;;;10.32;;
23181;SDS011;11759;51.282;6.642;2022-08-02T05:08:54;19.42;;;11.32;;
23181;SDS011;11759;51.282;6.642;2022-08-02T05:11:22;18.27;;;10.75;;
23181;SDS011;11759;51.282;6.642;2022-08-02T05:14:00;18.52;;;10.55;;
23181;SDS011;11759;51.282;6.642;2022-08-02T05:16:26;18.65;;;10.73;;
23181;SDS011;11759;51.282;6.642;2022-08-02T05:18:57;20.58;;;11.63;;
23181;SDS011;11759;51.282;6.642;2022-08-02T05:21:28;26.33;;;12.88;;
23181;SDS011;11759;51.282;6.642;2022-08-02T05:23:54;21.55;;;12.57;;
23181;SDS011;11759;51.282;6.642;2022-08-02T05:26:21;22.75;;;13.30;;
23181;SDS011;11759;51.282;6.642;2022-08-02T05:28:47;23.20;;;12.57;;
23181;SDS011;11759;51.282;6.642;2022-08-02T05:31:15;21.35;;;12.93;;
23181;SDS011;11759;51.282;6.642;2022-08-02T05:33:41;20.90;;;13.73;;
23181;SDS011;11759;51.282;6.642;2022-08-02T05:36:08;23.25;;;13.98;;
23181;SDS011;11759;51.282;6.642;2022-08-02T05:38:35;25.92;;;14.00;;
23181;SDS011;11759;51.282;6.642;2022-08-02T05:41:03;23.48;;;14.25;;
23181;SDS011;11759;51.282;6.642;2022-08-02T05:43:31;24.60;;;13.90;;
23181;SDS011;11759;51.282;6.642;2022-08-02T05:45:57;25.27;;;12.73;;
23181;SDS011;11759;51.282;6.642;2022-08-02T05:48:24;25.65;;;13.75;;
23181;SDS011;11759;51.282;6.642;2022-08-02T05:51:10;27.45;;;15.02;;
23181;SDS011;11759;51.282;6.642;2022-08-02T05:56:23;20.70;;;13.85;;
23181;SDS011;11759;51.282;6.642;2022-08-02T05:59:04;27.45;;;14.52;;
23181;SDS011;11759;51.282;6.642;2022-08-02T06:01:38;26.95;;;16.00;;
23181;SDS011;11759;51.282;6.642;2022-08-02T06:04:07;25.30;;;14.90;;
23181;SDS011;11759;51.282;6.642;2022-08-02T06:06:34;31.23;;;15.73;;
23181;SDS011;11759;51.282;6.642;2022-08-02T06:09:24;27.67;;;14.75;;
23181;SDS011;11759;51.282;6.642;2022-08-02T06:11:52;26.17;;;14.83;;
23181;SDS011;11759;51.282;6.642;2022-08-02T06:14:37;30.95;;;14.70;;
23181;SDS011;11759;51.282;6.642;2022-08-02T06:17:04;24.10;;;14.55;;
23181;SDS011;11759;51.282;6.642;2022-08-02T06:19:31;27.85;;;14.27;;
23181;SDS011;11759;51.282;6.642;2022-08-02T06:22:18;24.33;;;13.50;;
23181;SDS011;11759;51.282;6.642;2022-08-02T06:25:01;21.88;;;13.32;;
23181;SDS011;11759;51.282;6.642;2022-08-02T06:27:29;26.75;;;13.90;;
23181;SDS011;11759;51.282;6.642;2022-08-02T06:29:56;24.45;;;13.93;;
23181;SDS011;11759;51.282;6.642;2022-08-02T06:32:23;24.35;;;12.75;;
23181;SDS011;11759;51.282;6.642;2022-08-02T06:34:52;25.73;;;12.90;;
23181;SDS011;11759;51.282;6.642;2022-08-02T06:37:26;23.60;;;15.52;;
23181;SDS011;11759;51.282;6.642;2022-08-02T06:40:40;30.27;;;18.20;;
23181;SDS011;11759;51.282;6.642;2022-08-02T06:42:57;35.67;;;18.80;;
23181;SDS011;11759;51.282;6.642;2022-08-02T06:45:30;36.00;;;20.45;;
23181;SDS011;11759;51.282;6.642;2022-08-02T06:47:58;38.15;;;21.30;;
23181;SDS011;11759;51.282;6.642;2022-08-02T06:50:25;33.10;;;19.00;;
23181;SDS011;11759;51.282;6.642;2022-08-02T06:52:52;31.75;;;18.55;;
23181;SDS011;11759;51.282;6.642;2022-08-02T06:55:19;29.70;;;15.38;;
23181;SDS011;11759;51.282;6.642;2022-08-02T06:57:45;20.80;;;13.95;;
23181;SDS011;11759;51.282;6.642;2022-08-02T07:00:12;20.73;;;13.18;;
23181;SDS011;11759;51.282;6.642;2022-08-02T07:02:39;27.63;;;15.13;;
23181;SDS011;11759;51.282;6.642;2022-08-02T07:05:06;25.70;;;15.00;;
23181;SDS011;11759;51.282;6.642;2022-08-02T07:07:33;28.05;;;15.30;;
23181;SDS011;11759;51.282;6.642;2022-08-02T07:10:00;24.88;;;14.10;;
23181;SDS011;11759;51.282;6.642;2022-08-02T07:12:27;24.00;;;12.82;;
23181;SDS011;11759;51.282;6.642;2022-08-02T07:14:55;26.27;;;15.35;;
23181;SDS011;11759;51.282;6.642;2022-08-02T07:17:22;23.77;;;13.63;;
23181;SDS011;11759;51.282;6.642;2022-08-02T07:19:49;23.15;;;12.13;;
23181;SDS011;11759;51.282;6.642;2022-08-02T07:22:15;22.95;;;13.15;;
23181;SDS011;11759;51.282;6.642;2022-08-02T07:24:43;20.98;;;12.30;;
23181;SDS011;11759;51.282;6.642;2022-08-02T07:27:10;21.80;;;12.30;;
23181;SDS011;11759;51.282;6.642;2022-08-02T07:29:38;18.48;;;10.88;;
23181;SDS011;11759;51.282;6.642;2022-08-02T07:32:13;18.77;;;9.68;;
23181;SDS011;11759;51.282;6.642;2022-08-02T07:34:44;18.48;;;9.50;;
23181;SDS011;11759;51.282;6.642;2022-08-02T07:37:19;19.95;;;9.45;;
23181;SDS011;11759;51.282;6.642;2022-08-02T07:40:08;13.60;;;7.43;;
23181;SDS011;11759;51.282;6.642;2022-08-02T07:42:40;14.38;;;6.40;;
23181;SDS011;11759;51.282;6.642;2022-08-02T07:45:08;14.13;;;6.72;;
23181;SDS011;11759;51.282;6.642;2022-08-02T07:47:36;12.38;;;6.22;;
23181;SDS011;11759;51.282;6.642;2022-08-02T07:50:04;9.52;;;5.07;;
23181;SDS011;11759;51.282;6.642;2022-08-02T07:52:31;10.90;;;4.70;;
23181;SDS011;11759;51.282;6.642;2022-08-02T07:54:58;8.50;;;4.65;;
23181;SDS011;11759;51.282;6.642;2022-08-02T07:57:24;13.75;;;5.70;;
23181;SDS011;11759;51.282;6.642;2022-08-02T07:59:51;9.43;;;4.63;;
23181;SDS011;11759;51.282;6.642;2022-08-02T08:02:17;8.20;;;5.07;;
23181;SDS011;11759;51.282;6.642;2022-08-02T08:04:44;10.82;;;4.05;;
23181;SDS011;11759;51.282;6.642;2022-08-02T08:07:11;7.30;;;4.07;;
23181;SDS011;11759;51.282;6.642;2022-08-02T08:09:37;14.65;;;4.40;;
23181;SDS011;11759;51.282;6.642;2022-08-02T08:12:07;12.32;;;4.47;;
23181;SDS011;11759;51.282;6.642;2022-08-02T08:14:35;7.65;;;4.05;;
23181;SDS011;11759;51.282;6.642;2022-08-02T08:17:02;9.68;;;3.72;;
23181;SDS011;11759;51.282;6.642;2022-08-02T08:19:29;8.73;;;4.10;;
23181;SDS011;11759;51.282;6.642;2022-08-02T08:22:16;7.25;;;3.78;;
23181;SDS011;11759;51.282;6.642;2022-08-02T08:24:42;14.02;;;4.95;;
23181;SDS011;11759;51.282;6.642;2022-08-02T08:27:10;9.38;;;3.97;;
23181;SDS011;11759;51.282;6.642;2022-08-02T08:29:40;6.85;;;3.58;;
23181;SDS011;11759;51.282;6.642;2022-08-02T08:32:07;7.07;;;3.90;;
23181;SDS011;11759;51.282;6.642;2022-08-02T08:34:41;10.02;;;3.75;;
23181;SDS011;11759;51.282;6.642;2022-08-02T08:37:08;8.15;;;4.10;;
23181;SDS011;11759;51.282;6.642;2022-08-02T08:39:42;6.57;;;3.97;;
23181;SDS011;11759;51.282;6.642;2022-08-02T08:42:27;7.18;;;4.45;;
23181;SDS011;11759;51.282;6.642;2022-08-02T08:44:54;6.90;;;3.67;;
23181;SDS011;11759;51.282;6.642;2022-08-02T08:47:23;14.55;;;3.92;;
23181;SDS011;11759;51.282;6.642;2022-08-02T08:50:05;6.90;;;3.45;;
23181;SDS011;11759;51.282;6.642;2022-08-02T08:52:42;6.93;;;3.50;;
23181;SDS011;11759;51.282;6.642;2022-08-02T08:55:15;10.82;;;4.20;;
23181;SDS011;11759;51.282;6.642;2022-08-02T08:57:42;8.40;;;3.65;;
23181;SDS011;11759;51.282;6.642;2022-08-02T09:00:10;8.13;;;3.75;;
23181;SDS011;11759;51.282;6.642;2022-08-02T09:02:42;9.25;;;4.00;;
23181;SDS011;11759;51.282;6.642;2022-08-02T09:05:10;5.65;;;3.00;;
23181;SDS011;11759;51.282;6.642;2022-08-02T09:07:37;7.47;;;3.60;;
23181;SDS011;11759;51.282;6.642;2022-08-02T09:10:30;13.00;;;3.90;;
23181;SDS011;11759;51.282;6.642;2022-08-02T09:13:11;9.75;;;3.15;;
23181;SDS011;11759;51.282;6.642;2022-08-02T09:16:05;10.50;;;3.45;;
23181;SDS011;11759;51.282;6.642;2022-08-02T09:18:39;10.52;;;2.67;;
23181;SDS011;11759;51.282;6.642;2022-08-02T09:21:13;10.40;;;3.38;;
23181;SDS011;11759;51.282;6.642;2022-08-02T09:26:16;6.93;;;2.88;;
23181;SDS011;11759;51.282;6.642;2022-08-02T09:28:45;9.27;;;3.00;;
23181;SDS011;11759;51.282;6.642;2022-08-02T09:31:13;9.13;;;3.00;;
23181;SDS011;11759;51.282;6.642;2022-08-02T09:33:42;6.45;;;3.58;;
23181;SDS011;11759;51.282;6.642;2022-08-02T09:36:11;6.10;;;2.80;;
23181;SDS011;11759;51.282;6.642;2022-08-02T09:41:28;6.25;;;3.00;;
23181;SDS011;11759;51.282;6.642;2022-08-02T09:43:56;5.97;;;2.60;;
23181;SDS011;11759;51.282;6.642;2022-08-02T09:46:41;4.07;;;2.63;;
23181;SDS011;11759;51.282;6.642;2022-08-02T09:49:09;6.10;;;3.20;;
23181;SDS011;11759;51.282;6.642;2022-08-02T09:51:39;6.18;;;2.88;;
23181;SDS011;11759;51.282;6.642;2022-08-02T09:54:18;5.53;;;2.20;;
23181;SDS011;11759;51.282;6.642;2022-08-02T09:56:54;4.47;;;1.90;;
23181;SDS011;11759;51.282;6.642;2022-08-02T09:59:23;7.28;;;2.38;;
23181;SDS011;11759;51.282;6.642;2022-08-02T10:01:51;5.68;;;2.20;;
23181;SDS011;11759;51.282;6.642;2022-08-02T10:04:28;5.53;;;2.40;;
23181;SDS011;11759;51.282;6.642;2022-08-02T10:06:57;4.53;;;2.20;;
23181;SDS011;11759;51.282;6.642;2022-08-02T10:09:25;5.20;;;2.00;;
23181;SDS011;11759;51.282;6.642;2022-08-02T10:11:53;5.53;;;2.00;;
23181;SDS011;11759;51.282;6.642;2022-08-02T10:14:20;4.90;;;1.95;;
23181;SDS011;11759;51.282;6.642;2022-08-02T10:16:48;7.75;;;2.45;;
23181;SDS011;11759;51.282;6.642;2022-08-02T10:19:15;3.67;;;2.03;;
23181;SDS011;11759;51.282;6.642;2022-08-02T10:21:47;5.22;;;2.08;;
23181;SDS011;11759;51.282;6.642;2022-08-02T10:24:17;3.60;;;1.80;;
23181;SDS011;11759;51.282;6.642;2022-08-02T10:26:46;3.08;;;1.90;;
23181;SDS011;11759;51.282;6.642;2022-08-02T10:29:14;2.88;;;2.38;;
23181;SDS011;11759;51.282;6.642;2022-08-02T10:34:23;2.90;;;2.00;;
23181;SDS011;11759;51.282;6.642;2022-08-02T10:36:57;7.88;;;2.20;;
23181;SDS011;11759;51.282;6.642;2022-08-02T10:39:43;5.68;;;2.22;;
23181;SDS011;11759;51.282;6.642;2022-08-02T10:45:15;3.70;;;2.10;;
23181;SDS011;11759;51.282;6.642;2022-08-02T10:53:18;2.28;;;1.80;;
23181;SDS011;11759;51.282;6.642;2022-08-02T10:55:52;7.23;;;1.93;;
23181;SDS011;11759;51.282;6.642;2022-08-02T10:58:20;3.38;;;1.75;;
23181;SDS011;11759;51.282;6.642;2022-08-02T11:00:51;5.22;;;1.95;;
23181;SDS011;11759;51.282;6.642;2022-08-02T11:06:04;2.47;;;1.83;;
23181;SDS011;11759;51.282;6.642;2022-08-02T11:09:24;6.15;;;2.20;;
23181;SDS011;11759;51.282;6.642;2022-08-02T11:14:27;3.88;;;1.95;;
23181;SDS011;11759;51.282;6.642;2022-08-02T11:19:23;4.88;;;1.70;;
23181;SDS011;11759;51.282;6.642;2022-08-02T11:24:36;3.25;;;2.03;;
23181;SDS011;11759;51.282;6.642;2022-08-02T11:27:07;3.05;;;1.70;;
23181;SDS011;11759;51.282;6.642;2022-08-02T11:29:35;8.93;;;2.42;;
23181;SDS011;11759;51.282;6.642;2022-08-02T11:32:04;2.00;;;1.58;;
23181;SDS011;11759;51.282;6.642;2022-08-02T11:34:33;5.28;;;1.67;;
23181;SDS011;11759;51.282;6.642;2022-08-02T11:37:03;3.50;;;1.90;;
23181;SDS011;11759;51.282;6.642;2022-08-02T11:39:30;3.42;;;1.88;;
23181;SDS011;11759;51.282;6.642;2022-08-02T11:41:57;3.28;;;1.98;;
23181;SDS011;11759;51.282;6.642;2022-08-02T11:44:26;10.50;;;3.13;;
23181;SDS011;11759;51.282;6.642;2022-08-02T11:49:21;4.93;;;2.10;;
23181;SDS011;11759;51.282;6.642;2022-08-02T11:51:58;2.42;;;1.50;;
23181;SDS011;11759;51.282;6.642;2022-08-02T11:54:31;1.98;;;1.52;;
23181;SDS011;11759;51.282;6.642;2022-08-02T11:59:38;4.03;;;1.65;;
23181;SDS011;11759;51.282;6.642;2022-08-02T12:02:06;2.38;;;1.77;;
23181;SDS011;11759;51.282;6.642;2022-08-02T12:04:33;4.35;;;1.70;;
23181;SDS011;11759;51.282;6.642;2022-08-02T12:07:02;3.28;;;1.80;;
23181;SDS011;11759;51.282;6.642;2022-08-02T12:09:33;4.20;;;1.88;;
23181;SDS011;11759;51.282;6.642;2022-08-02T12:12:06;3.25;;;1.67;;
23181;SDS011;11759;51.282;6.642;2022-08-02T12:14:33;7.03;;;2.08;;
23181;SDS011;11759;51.282;6.642;2022-08-02T12:17:08;4.22;;;1.92;;
23181;SDS011;11759;51.282;6.642;2022-08-02T12:19:55;3.97;;;1.63;;
23181;SDS011;11759;51.282;6.642;2022-08-02T12:22:25;4.60;;;2.10;;
23181;SDS011;11759;51.282;6.642;2022-08-02T12:24:54;5.05;;;2.00;;
23181;SDS011;11759;51.282;6.642;2022-08-02T12:27:28;4.20;;;1.70;;
23181;SDS011;11759;51.282;6.642;2022-08-02T12:29:59;5.22;;;2.10;;
23181;SDS011;11759;51.282;6.642;2022-08-02T12:32:33;6.22;;;1.90;;
23181;SDS011;11759;51.282;6.642;2022-08-02T12:37:31;3.38;;;1.92;;
23181;SDS011;11759;51.282;6.642;2022-08-02T12:39:57;7.78;;;1.88;;
23181;SDS011;11759;51.282;6.642;2022-08-02T12:42:24;3.00;;;1.88;;
23181;SDS011;11759;51.282;6.642;2022-08-02T12:44:51;3.97;;;1.88;;
23181;SDS011;11759;51.282;6.642;2022-08-02T12:47:19;2.97;;;1.73;;
23181;SDS011;11759;51.282;6.642;2022-08-02T12:52:43;2.58;;;1.52;;
23181;SDS011;11759;51.282;6.642;2022-08-02T12:55:19;2.65;;;1.75;;
23181;SDS011;11759;51.282;6.642;2022-08-02T12:58:11;8.68;;;1.80;;
23181;SDS011;11759;51.282;6.642;2022-08-02T13:00:38;4.28;;;1.92;;
23181;SDS011;11759;51.282;6.642;2022-08-02T13:03:05;3.70;;;1.45;;
23181;SDS011;11759;51.282;6.642;2022-08-02T13:05:52;3.80;;;1.80;;
23181;SDS011;11759;51.282;6.642;2022-08-02T13:08:26;5.90;;;1.80;;
23181;SDS011;11759;51.282;6.642;2022-08-02T13:10:53;2.53;;;1.70;;
23181;SDS011;11759;51.282;6.642;2022-08-02T13:13:19;4.22;;;1.77;;
23181;SDS011;11759;51.282;6.642;2022-08-02T13:15:47;3.28;;;1.60;;
23181;SDS011;11759;51.282;6.642;2022-08-02T13:18:16;5.03;;;1.70;;
23181;SDS011;11759;51.282;6.642;2022-08-02T13:20:43;2.67;;;1.73;;
23181;SDS011;11759;51.282;6.642;2022-08-02T13:23:11;2.72;;;1.42;;
23181;SDS011;11759;51.282;6.642;2022-08-02T13:25:47;4.80;;;1.77;;
23181;SDS011;11759;51.282;6.642;2022-08-02T13:28:18;4.20;;;1.73;;
23181;SDS011;11759;51.282;6.642;2022-08-02T13:30:45;3.97;;;1.70;;
23181;SDS011;11759;51.282;6.642;2022-08-02T13:33:12;4.35;;;1.75;;
23181;SDS011;11759;51.282;6.642;2022-08-02T13:35:39;5.00;;;1.77;;
23181;SDS011;11759;51.282;6.642;2022-08-02T13:38:06;2.95;;;1.73;;
23181;SDS011;11759;51.282;6.642;2022-08-02T13:40:33;2.42;;;1.60;;
23181;SDS011;11759;51.282;6.642;2022-08-02T13:43:20;3.13;;;2.08;;
23181;SDS011;11759;51.282;6.642;2022-08-02T13:45:46;2.70;;;1.80;;
23181;SDS011;11759;51.282;6.642;2022-08-02T13:48:14;3.83;;;1.85;;
23181;SDS011;11759;51.282;6.642;2022-08-02T13:50:43;3.78;;;1.90;;
23181;SDS011;11759;51.282;6.642;2022-08-02T13:53:10;3.03;;;2.10;;
23181;SDS011;11759;51.282;6.642;2022-08-02T13:55:36;2.13;;;1.63;;
23181;SDS011;11759;51.282;6.642;2022-08-02T13:58:08;4.80;;;1.70;;
23181;SDS011;11759;51.282;6.642;2022-08-02T14:00:35;2.70;;;1.52;;
23181;SDS011;11759;51.282;6.642;2022-08-02T14:03:03;2.55;;;1.80;;
23181;SDS011;11759;51.282;6.642;2022-08-02T14:05:30;3.72;;;1.90;;
23181;SDS011;11759;51.282;6.642;2022-08-02T14:08:14;6.95;;;1.60;;
23181;SDS011;11759;51.282;6.642;2022-08-02T14:10:43;3.05;;;1.60;;
23181;SDS011;11759;51.282;6.642;2022-08-02T14:13:10;1.80;;;1.40;;
23181;SDS011;11759;51.282;6.642;2022-08-02T14:15:37;4.03;;;1.80;;
23181;SDS011;11759;51.282;6.642;2022-08-02T14:18:03;3.45;;;1.52;;
23181;SDS011;11759;51.282;6.642;2022-08-02T14:20:30;2.85;;;1.58;;
23181;SDS011;11759;51.282;6.642;2022-08-02T14:22:57;3.83;;;1.35;;
23181;SDS011;11759;51.282;6.642;2022-08-02T14:25:23;2.70;;;1.55;;
23181;SDS011;11759;51.282;6.642;2022-08-02T14:27:51;2.45;;;1.10;;
23181;SDS011;11759;51.282;6.642;2022-08-02T14:30:17;3.45;;;1.30;;
23181;SDS011;11759;51.282;6.642;2022-08-02T14:32:44;2.58;;;1.30;;
23181;SDS011;11759;51.282;6.642;2022-08-02T14:35:11;3.65;;;1.27;;
23181;SDS011;11759;51.282;6.642;2022-08-02T14:37:37;3.47;;;1.17;;
23181;SDS011;11759;51.282;6.642;2022-08-02T14:40:04;2.33;;;1.40;;
23181;SDS011;11759;51.282;6.642;2022-08-02T14:42:51;4.35;;;1.52;;
23181;SDS011;11759;51.282;6.642;2022-08-02T14:45:18;3.08;;;1.40;;
23181;SDS011;11759;51.282;6.642;2022-08-02T14:47:47;1.98;;;1.27;;
23181;SDS011;11759;51.282;6.642;2022-08-02T14:50:14;4.90;;;1.58;;
23181;SDS011;11759;51.282;6.642;2022-08-02T14:52:43;2.92;;;1.58;;
23181;SDS011;11759;51.282;6.642;2022-08-02T14:55:13;4.05;;;1.38;;
23181;SDS011;11759;51.282;6.642;2022-08-02T14:57:42;2.13;;;1.25;;
23181;SDS011;11759;51.282;6.642;2022-08-02T15:00:09;3.47;;;1.40;;
23181;SDS011;11759;51.282;6.642;2022-08-02T15:02:36;5.32;;;1.85;;
23181;SDS011;11759;51.282;6.642;2022-08-02T15:05:03;5.40;;;1.60;;
23181;SDS011;11759;51.282;6.642;2022-08-02T15:07:29;5.45;;;1.77;;
23181;SDS011;11759;51.282;6.642;2022-08-02T15:09:56;2.30;;;1.40;;
23181;SDS011;11759;51.282;6.642;2022-08-02T15:12:22;3.58;;;1.80;;
23181;SDS011;11759;51.282;6.642;2022-08-02T15:14:49;3.53;;;1.60;;
23181;SDS011;11759;51.282;6.642;2022-08-02T15:17:16;3.60;;;1.50;;
23181;SDS011;11759;51.282;6.642;2022-08-02T15:19:42;3.25;;;1.50;;
23181;SDS011;11759;51.282;6.642;2022-08-02T15:22:25;3.35;;;1.85;;
23181;SDS011;11759;51.282;6.642;2022-08-02T15:24:54;2.38;;;1.70;;
23181;SDS011;11759;51.282;6.642;2022-08-02T15:27:20;4.63;;;1.70;;
23181;SDS011;11759;51.282;6.642;2022-08-02T15:29:47;3.08;;;1.30;;
23181;SDS011;11759;51.282;6.642;2022-08-02T15:32:14;3.10;;;1.63;;
23181;SDS011;11759;51.282;6.642;2022-08-02T15:34:45;2.25;;;1.70;;
23181;SDS011;11759;51.282;6.642;2022-08-02T15:37:12;3.80;;;1.60;;
23181;SDS011;11759;51.282;6.642;2022-08-02T15:39:38;3.88;;;1.60;;
23181;SDS011;11759;51.282;6.642;2022-08-02T15:42:05;3.90;;;1.60;;
23181;SDS011;11759;51.282;6.642;2022-08-02T15:44:32;4.50;;;1.58;;
23181;SDS011;11759;51.282;6.642;2022-08-02T15:46:58;5.47;;;1.75;;
23181;SDS011;11759;51.282;6.642;2022-08-02T15:49:26;2.35;;;1.20;;
23181;SDS011;11759;51.282;6.642;2022-08-02T15:51:53;4.70;;;1.77;;